sensor_id;sensor_type;location;lat;lon;timestamp;temperature;humidity
19050;DHT22;9657;45.940;12.840;2023-07-20T00:01:51;31.90;54.30
19050;DHT22;9657;45.940;12.840;2023-07-20T00:04:18;31.90;54.30
19050;DHT22;9657;45.940;12.840;2023-07-20T00:06:45;31.90;54.30
19050;DHT22;9657;45.940;12.840;2023-07-20T00:09:12;31.90;54.30
19050;DHT22;9657;45.940;12.840;2023-07-20T00:11:40;31.90;54.30
19050;DHT22;9657;45.940;12.840;2023-07-20T00:14:07;31.90;54.30
19050;DHT22;9657;45.940;12.840;2023-07-20T00:16:35;31.90;54.30
19050;DHT22;9657;45.940;12.840;2023-07-20T00:19:02;31.90;54.30
19050;DHT22;9657;45.940;12.840;2023-07-20T00:21:30;31.90;54.30
19050;DHT22;9657;45.940;12.840;2023-07-20T00:23:57;31.90;54.30
19050;DHT22;9657;45.940;12.840;2023-07-20T00:26:24;31.90;54.30
19050;DHT22;9657;45.940;12.840;2023-07-20T00:28:51;31.90;54.30
19050;DHT22;9657;45.940;12.840;2023-07-20T00:31:18;31.90;54.30
19050;DHT22;9657;45.940;12.840;2023-07-20T00:33:47;31.90;54.30
19050;DHT22;9657;45.940;12.840;2023-07-20T00:36:14;31.90;54.30
19050;DHT22;9657;45.940;12.840;2023-07-20T00:38:42;31.80;54.30
19050;DHT22;9657;45.940;12.840;2023-07-20T00:41:09;31.80;54.30
19050;DHT22;9657;45.940;12.840;2023-07-20T00:43:36;31.90;54.40
19050;DHT22;9657;45.940;12.840;2023-07-20T00:46:03;31.80;54.30
19050;DHT22;9657;45.940;12.840;2023-07-20T00:48:31;31.90;54.30
19050;DHT22;9657;45.940;12.840;2023-07-20T00:51:00;31.90;54.40
19050;DHT22;9657;45.940;12.840;2023-07-20T00:53:28;31.80;54.30
19050;DHT22;9657;45.940;12.840;2023-07-20T00:55:56;31.80;54.30
19050;DHT22;9657;45.940;12.840;2023-07-20T00:58:23;31.80;54.30
19050;DHT22;9657;45.940;12.840;2023-07-20T01:03:26;31.80;54.30
19050;DHT22;9657;45.940;12.840;2023-07-20T01:05:57;31.80;54.30
19050;DHT22;9657;45.940;12.840;2023-07-20T01:08:36;31.80;54.30
19050;DHT22;9657;45.940;12.840;2023-07-20T01:11:10;31.80;54.30
19050;DHT22;9657;45.940;12.840;2023-07-20T01:13:38;31.80;54.30
19050;DHT22;9657;45.940;12.840;2023-07-20T01:16:06;31.80;54.40
19050;DHT22;9657;45.940;12.840;2023-07-20T01:18:33;31.80;54.30
19050;DHT22;9657;45.940;12.840;2023-07-20T01:21:03;31.80;54.30
19050;DHT22;9657;45.940;12.840;2023-07-20T01:26:59;31.70;54.30
19050;DHT22;9657;45.940;12.840;2023-07-20T01:29:44;31.70;54.30
19050;DHT22;9657;45.940;12.840;2023-07-20T01:32:23;31.70;54.30
19050;DHT22;9657;45.940;12.840;2023-07-20T01:34:53;31.70;54.30
19050;DHT22;9657;45.940;12.840;2023-07-20T01:37:21;31.70;54.30
19050;DHT22;9657;45.940;12.840;2023-07-20T01:39:52;31.70;54.30
19050;DHT22;9657;45.940;12.840;2023-07-20T01:42:21;31.70;54.30
19050;DHT22;9657;45.940;12.840;2023-07-20T01:44:50;31.70;54.30
19050;DHT22;9657;45.940;12.840;2023-07-20T01:47:18;31.70;54.30
19050;DHT22;9657;45.940;12.840;2023-07-20T01:49:46;31.70;54.40
19050;DHT22;9657;45.940;12.840;2023-07-20T01:52:13;31.70;54.40
19050;DHT22;9657;45.940;12.840;2023-07-20T01:54:41;31.70;54.30
19050;DHT22;9657;45.940;12.840;2023-07-20T01:57:08;31.70;54.40
19050;DHT22;9657;45.940;12.840;2023-07-20T01:59:35;31.70;54.30
19050;DHT22;9657;45.940;12.840;2023-07-20T02:02:02;31.70;54.30
19050;DHT22;9657;45.940;12.840;2023-07-20T02:04:29;31.70;54.30
19050;DHT22;9657;45.940;12.840;2023-07-20T02:06:57;31.70;54.30
19050;DHT22;9657;45.940;12.840;2023-07-20T02:09:24;31.70;54.30
19050;DHT22;9657;45.940;12.840;2023-07-20T02:11:51;31.70;54.40
19050;DHT22;9657;45.940;12.840;2023-07-20T02:14:18;31.70;54.30
19050;DHT22;9657;45.940;12.840;2023-07-20T02:16:45;31.70;54.40
19050;DHT22;9657;45.940;12.840;2023-07-20T02:19:14;31.70;54.30
19050;DHT22;9657;45.940;12.840;2023-07-20T02:21:41;31.70;54.30
19050;DHT22;9657;45.940;12.840;2023-07-20T02:24:09;31.70;54.30
19050;DHT22;9657;45.940;12.840;2023-07-20T02:26:36;31.70;54.30
19050;DHT22;9657;45.940;12.840;2023-07-20T02:29:03;31.70;54.30
19050;DHT22;9657;45.940;12.840;2023-07-20T02:31:31;31.70;54.30
19050;DHT22;9657;45.940;12.840;2023-07-20T02:33:58;31.70;54.30
19050;DHT22;9657;45.940;12.840;2023-07-20T02:36:25;31.60;54.20
19050;DHT22;9657;45.940;12.840;2023-07-20T02:38:52;31.60;54.30
19050;DHT22;9657;45.940;12.840;2023-07-20T02:41:21;31.70;54.30
19050;DHT22;9657;45.940;12.840;2023-07-20T02:43:48;31.70;54.30
19050;DHT22;9657;45.940;12.840;2023-07-20T02:46:15;31.70;54.30
19050;DHT22;9657;45.940;12.840;2023-07-20T02:48:42;31.60;54.20
19050;DHT22;9657;45.940;12.840;2023-07-20T02:51:09;31.60;54.20
19050;DHT22;9657;45.940;12.840;2023-07-20T02:53:37;31.60;54.20
19050;DHT22;9657;45.940;12.840;2023-07-20T02:56:04;31.60;54.20
19050;DHT22;9657;45.940;12.840;2023-07-20T02:58:34;31.60;54.30
19050;DHT22;9657;45.940;12.840;2023-07-20T03:01:03;31.60;54.30
19050;DHT22;9657;45.940;12.840;2023-07-20T03:03:30;31.60;54.30
19050;DHT22;9657;45.940;12.840;2023-07-20T03:05:57;31.60;54.30
19050;DHT22;9657;45.940;12.840;2023-07-20T03:08:24;31.60;54.30
19050;DHT22;9657;45.940;12.840;2023-07-20T03:10:51;31.60;54.30
19050;DHT22;9657;45.940;12.840;2023-07-20T03:13:18;31.60;54.30
19050;DHT22;9657;45.940;12.840;2023-07-20T03:15:47;31.60;54.30
19050;DHT22;9657;45.940;12.840;2023-07-20T03:18:14;31.60;54.30
19050;DHT22;9657;45.940;12.840;2023-07-20T03:20:41;31.60;54.30
19050;DHT22;9657;45.940;12.840;2023-07-20T03:23:08;31.60;54.30
19050;DHT22;9657;45.940;12.840;2023-07-20T03:25:35;31.60;54.30
19050;DHT22;9657;45.940;12.840;2023-07-20T03:28:03;31.60;54.30
19050;DHT22;9657;45.940;12.840;2023-07-20T03:30:30;31.60;54.30
19050;DHT22;9657;45.940;12.840;2023-07-20T03:32:58;31.60;54.40
19050;DHT22;9657;45.940;12.840;2023-07-20T03:35:25;31.50;54.30
19050;DHT22;9657;45.940;12.840;2023-07-20T03:37:52;31.50;54.30
19050;DHT22;9657;45.940;12.840;2023-07-20T03:40:19;31.60;54.40
19050;DHT22;9657;45.940;12.840;2023-07-20T03:42:46;31.50;54.30
19050;DHT22;9657;45.940;12.840;2023-07-20T03:45:14;31.50;54.30
19050;DHT22;9657;45.940;12.840;2023-07-20T03:47:41;31.50;54.30
19050;DHT22;9657;45.940;12.840;2023-07-20T03:50:10;31.50;54.30
19050;DHT22;9657;45.940;12.840;2023-07-20T03:52:37;31.50;53.80
19050;DHT22;9657;45.940;12.840;2023-07-20T03:55:04;31.50;54.40
19050;DHT22;9657;45.940;12.840;2023-07-20T03:57:31;31.50;54.40
19050;DHT22;9657;45.940;12.840;2023-07-20T03:59:59;31.50;54.40
19050;DHT22;9657;45.940;12.840;2023-07-20T04:02:26;31.50;54.40
19050;DHT22;9657;45.940;12.840;2023-07-20T04:04:53;31.50;54.40
19050;DHT22;9657;45.940;12.840;2023-07-20T04:07:21;31.50;54.40
19050;DHT22;9657;45.940;12.840;2023-07-20T04:09:48;31.50;54.40
19050;DHT22;9657;45.940;12.840;2023-07-20T04:12:15;31.50;54.40
19050;DHT22;9657;45.940;12.840;2023-07-20T04:14:42;31.50;54.40
19050;DHT22;9657;45.940;12.840;2023-07-20T04:17:09;31.50;54.40
19050;DHT22;9657;45.940;12.840;2023-07-20T04:19:38;31.50;54.40
19050;DHT22;9657;45.940;12.840;2023-07-20T04:22:06;31.50;54.50
19050;DHT22;9657;45.940;12.840;2023-07-20T04:24:34;31.40;54.40
19050;DHT22;9657;45.940;12.840;2023-07-20T04:27:01;31.50;54.50
19050;DHT22;9657;45.940;12.840;2023-07-20T04:29:28;31.40;54.40
19050;DHT22;9657;45.940;12.840;2023-07-20T04:31:55;31.40;54.40
19050;DHT22;9657;45.940;12.840;2023-07-20T04:34:22;31.40;54.40
19050;DHT22;9657;45.940;12.840;2023-07-20T04:36:49;31.40;54.40
19050;DHT22;9657;45.940;12.840;2023-07-20T04:39:16;31.40;54.40
19050;DHT22;9657;45.940;12.840;2023-07-20T04:41:45;31.40;54.50
19050;DHT22;9657;45.940;12.840;2023-07-20T04:44:13;31.40;54.50
19050;DHT22;9657;45.940;12.840;2023-07-20T04:46:40;31.40;54.50
19050;DHT22;9657;45.940;12.840;2023-07-20T04:49:07;31.40;54.50
19050;DHT22;9657;45.940;12.840;2023-07-20T04:51:34;31.40;54.50
19050;DHT22;9657;45.940;12.840;2023-07-20T04:54:02;31.40;54.50
19050;DHT22;9657;45.940;12.840;2023-07-20T04:56:29;31.40;54.50
19050;DHT22;9657;45.940;12.840;2023-07-20T04:58:57;31.40;54.50
19050;DHT22;9657;45.940;12.840;2023-07-20T05:01:24;31.40;54.50
19050;DHT22;9657;45.940;12.840;2023-07-20T05:03:52;31.40;54.50
19050;DHT22;9657;45.940;12.840;2023-07-20T05:06:19;31.40;54.50
19050;DHT22;9657;45.940;12.840;2023-07-20T05:08:46;31.40;54.50
19050;DHT22;9657;45.940;12.840;2023-07-20T05:11:13;31.40;54.50
19050;DHT22;9657;45.940;12.840;2023-07-20T05:13:40;31.40;54.40
19050;DHT22;9657;45.940;12.840;2023-07-20T05:16:09;31.40;54.40
19050;DHT22;9657;45.940;12.840;2023-07-20T05:18:36;31.40;54.40
19050;DHT22;9657;45.940;12.840;2023-07-20T05:21:03;31.40;54.30
19050;DHT22;9657;45.940;12.840;2023-07-20T05:23:30;31.40;54.30
19050;DHT22;9657;45.940;12.840;2023-07-20T05:25:58;31.40;54.30
19050;DHT22;9657;45.940;12.840;2023-07-20T05:28:26;31.40;54.20
19050;DHT22;9657;45.940;12.840;2023-07-20T05:30:53;31.40;54.20
19050;DHT22;9657;45.940;12.840;2023-07-20T05:33:22;31.40;54.20
19050;DHT22;9657;45.940;12.840;2023-07-20T05:35:49;31.40;54.20
19050;DHT22;9657;45.940;12.840;2023-07-20T05:38:16;31.40;54.20
19050;DHT22;9657;45.940;12.840;2023-07-20T05:40:44;31.30;54.20
19050;DHT22;9657;45.940;12.840;2023-07-20T05:43:12;31.40;54.20
19050;DHT22;9657;45.940;12.840;2023-07-20T05:45:41;31.40;54.20
19050;DHT22;9657;45.940;12.840;2023-07-20T05:48:08;31.30;54.20
19050;DHT22;9657;45.940;12.840;2023-07-20T05:50:41;31.30;54.20
19050;DHT22;9657;45.940;12.840;2023-07-20T05:53:08;31.30;54.20
19050;DHT22;9657;45.940;12.840;2023-07-20T05:55:35;31.30;54.20
19050;DHT22;9657;45.940;12.840;2023-07-20T05:58:02;31.30;54.20
19050;DHT22;9657;45.940;12.840;2023-07-20T06:00:29;31.30;54.20
19050;DHT22;9657;45.940;12.840;2023-07-20T06:02:57;31.30;54.20
19050;DHT22;9657;45.940;12.840;2023-07-20T06:05:24;31.30;54.90
19050;DHT22;9657;45.940;12.840;2023-07-20T06:07:53;31.30;54.90
19050;DHT22;9657;45.940;12.840;2023-07-20T06:10:20;31.30;54.20
19050;DHT22;9657;45.940;12.840;2023-07-20T06:12:47;31.30;54.20
19050;DHT22;9657;45.940;12.840;2023-07-20T06:15:27;31.30;54.20
19050;DHT22;9657;45.940;12.840;2023-07-20T06:17:54;31.30;54.20
19050;DHT22;9657;45.940;12.840;2023-07-20T06:20:23;31.30;54.20
19050;DHT22;9657;45.940;12.840;2023-07-20T06:22:50;31.30;54.90
19050;DHT22;9657;45.940;12.840;2023-07-20T06:25:19;31.30;54.20
19050;DHT22;9657;45.940;12.840;2023-07-20T06:27:48;31.30;54.20
19050;DHT22;9657;45.940;12.840;2023-07-20T06:30:15;31.30;54.20
19050;DHT22;9657;45.940;12.840;2023-07-20T06:32:42;31.30;54.20
19050;DHT22;9657;45.940;12.840;2023-07-20T06:35:09;31.30;54.20
19050;DHT22;9657;45.940;12.840;2023-07-20T06:37:36;31.30;54.20
19050;DHT22;9657;45.940;12.840;2023-07-20T06:40:04;31.30;54.20
19050;DHT22;9657;45.940;12.840;2023-07-20T06:42:36;31.30;54.20
19050;DHT22;9657;45.940;12.840;2023-07-20T06:45:03;31.30;54.20
19050;DHT22;9657;45.940;12.840;2023-07-20T06:47:31;31.30;54.20
19050;DHT22;9657;45.940;12.840;2023-07-20T06:49:58;31.30;54.10
19050;DHT22;9657;45.940;12.840;2023-07-20T06:52:25;31.30;54.20
19050;DHT22;9657;45.940;12.840;2023-07-20T06:54:52;31.30;54.20
19050;DHT22;9657;45.940;12.840;2023-07-20T06:57:19;31.30;54.10
19050;DHT22;9657;45.940;12.840;2023-07-20T06:59:47;31.30;54.10
19050;DHT22;9657;45.940;12.840;2023-07-20T07:02:14;31.30;54.10
19050;DHT22;9657;45.940;12.840;2023-07-20T07:04:41;31.30;54.10
19050;DHT22;9657;45.940;12.840;2023-07-20T07:07:09;31.30;54.10
19050;DHT22;9657;45.940;12.840;2023-07-20T07:09:36;31.30;54.10
19050;DHT22;9657;45.940;12.840;2023-07-20T07:12:03;31.30;54.10
19050;DHT22;9657;45.940;12.840;2023-07-20T07:14:31;31.30;54.10
19050;DHT22;9657;45.940;12.840;2023-07-20T07:17:00;31.30;54.10
19050;DHT22;9657;45.940;12.840;2023-07-20T07:19:27;31.30;54.10
19050;DHT22;9657;45.940;12.840;2023-07-20T07:21:54;31.30;54.10
19050;DHT22;9657;45.940;12.840;2023-07-20T07:24:21;31.30;54.10
19050;DHT22;9657;45.940;12.840;2023-07-20T07:26:48;31.30;54.10
19050;DHT22;9657;45.940;12.840;2023-07-20T07:29:15;31.30;54.80
19050;DHT22;9657;45.940;12.840;2023-07-20T07:31:42;31.30;54.10
19050;DHT22;9657;45.940;12.840;2023-07-20T07:34:10;31.30;54.10
19050;DHT22;9657;45.940;12.840;2023-07-20T07:36:37;31.30;54.10
19050;DHT22;9657;45.940;12.840;2023-07-20T07:39:04;31.30;54.10
19050;DHT22;9657;45.940;12.840;2023-07-20T07:41:31;31.30;54.10
19050;DHT22;9657;45.940;12.840;2023-07-20T07:43:58;31.30;54.10
19050;DHT22;9657;45.940;12.840;2023-07-20T07:46:25;31.30;54.10
19050;DHT22;9657;45.940;12.840;2023-07-20T07:48:52;31.30;54.10
19050;DHT22;9657;45.940;12.840;2023-07-20T07:51:21;31.30;54.10
19050;DHT22;9657;45.940;12.840;2023-07-20T07:53:48;31.30;54.10
19050;DHT22;9657;45.940;12.840;2023-07-20T07:56:15;31.30;54.10
19050;DHT22;9657;45.940;12.840;2023-07-20T07:58:43;31.30;54.10
19050;DHT22;9657;45.940;12.840;2023-07-20T08:01:10;31.30;54.10
19050;DHT22;9657;45.940;12.840;2023-07-20T08:03:37;31.30;54.10
19050;DHT22;9657;45.940;12.840;2023-07-20T08:06:04;31.30;54.10
19050;DHT22;9657;45.940;12.840;2023-07-20T08:08:33;31.30;54.10
19050;DHT22;9657;45.940;12.840;2023-07-20T08:11:00;31.30;54.10
19050;DHT22;9657;45.940;12.840;2023-07-20T08:13:27;31.30;54.10
19050;DHT22;9657;45.940;12.840;2023-07-20T08:15:54;31.30;54.10
19050;DHT22;9657;45.940;12.840;2023-07-20T08:18:21;31.30;54.10
19050;DHT22;9657;45.940;12.840;2023-07-20T08:20:48;31.30;54.10
19050;DHT22;9657;45.940;12.840;2023-07-20T08:23:16;31.30;54.00
19050;DHT22;9657;45.940;12.840;2023-07-20T08:25:44;31.30;54.10
19050;DHT22;9657;45.940;12.840;2023-07-20T08:28:11;31.30;54.10
19050;DHT22;9657;45.940;12.840;2023-07-20T08:30:41;31.30;54.00
19050;DHT22;9657;45.940;12.840;2023-07-20T08:33:09;31.30;54.00
19050;DHT22;9657;45.940;12.840;2023-07-20T08:35:37;31.30;54.00
19050;DHT22;9657;45.940;12.840;2023-07-20T08:38:04;31.30;54.70
19050;DHT22;9657;45.940;12.840;2023-07-20T08:40:31;31.30;54.00
19050;DHT22;9657;45.940;12.840;2023-07-20T08:43:00;31.40;54.10
19050;DHT22;9657;45.940;12.840;2023-07-20T08:45:27;31.40;54.10
19050;DHT22;9657;45.940;12.840;2023-07-20T08:47:56;31.40;54.10
19050;DHT22;9657;45.940;12.840;2023-07-20T08:50:26;31.40;54.10
19050;DHT22;9657;45.940;12.840;2023-07-20T08:52:57;31.40;54.10
19050;DHT22;9657;45.940;12.840;2023-07-20T08:55:25;31.40;54.00
19050;DHT22;9657;45.940;12.840;2023-07-20T08:57:54;31.40;54.00
19050;DHT22;9657;45.940;12.840;2023-07-20T09:00:23;31.40;54.00
19050;DHT22;9657;45.940;12.840;2023-07-20T09:02:52;31.40;53.90
19050;DHT22;9657;45.940;12.840;2023-07-20T09:05:19;31.40;53.90
19050;DHT22;9657;45.940;12.840;2023-07-20T09:07:46;31.40;53.90
19050;DHT22;9657;45.940;12.840;2023-07-20T09:10:13;31.50;54.00
19050;DHT22;9657;45.940;12.840;2023-07-20T09:12:42;31.50;53.90
19050;DHT22;9657;45.940;12.840;2023-07-20T09:15:11;31.50;53.80
19050;DHT22;9657;45.940;12.840;2023-07-20T09:17:41;31.60;53.80
19050;DHT22;9657;45.940;12.840;2023-07-20T09:20:12;31.60;53.70
19050;DHT22;9657;45.940;12.840;2023-07-20T09:22:42;31.60;53.70
19050;DHT22;9657;45.940;12.840;2023-07-20T09:25:12;31.60;53.60
19050;DHT22;9657;45.940;12.840;2023-07-20T09:27:41;31.60;53.60
19050;DHT22;9657;45.940;12.840;2023-07-20T09:30:09;31.60;53.50
19050;DHT22;9657;45.940;12.840;2023-07-20T09:32:42;31.70;53.50
19050;DHT22;9657;45.940;12.840;2023-07-20T09:35:13;31.70;53.50
19050;DHT22;9657;45.940;12.840;2023-07-20T09:37:46;31.70;53.40
19050;DHT22;9657;45.940;12.840;2023-07-20T09:40:17;31.70;53.40
19050;DHT22;9657;45.940;12.840;2023-07-20T09:42:45;31.70;53.40
19050;DHT22;9657;45.940;12.840;2023-07-20T09:45:12;31.70;53.30
19050;DHT22;9657;45.940;12.840;2023-07-20T09:47:41;31.80;53.30
19050;DHT22;9657;45.940;12.840;2023-07-20T09:50:08;31.80;53.30
19050;DHT22;9657;45.940;12.840;2023-07-20T09:52:39;31.80;53.20
19050;DHT22;9657;45.940;12.840;2023-07-20T09:55:07;31.80;53.30
19050;DHT22;9657;45.940;12.840;2023-07-20T09:57:35;31.80;53.20
19050;DHT22;9657;45.940;12.840;2023-07-20T10:00:04;31.80;53.10
19050;DHT22;9657;45.940;12.840;2023-07-20T10:02:42;31.80;53.20
19050;DHT22;9657;45.940;12.840;2023-07-20T10:05:12;31.80;53.10
19050;DHT22;9657;45.940;12.840;2023-07-20T10:07:43;31.80;53.10
19050;DHT22;9657;45.940;12.840;2023-07-20T10:10:11;31.80;53.10
19050;DHT22;9657;45.940;12.840;2023-07-20T10:12:41;31.80;53.10
19050;DHT22;9657;45.940;12.840;2023-07-20T10:15:17;31.90;53.10
19050;DHT22;9657;45.940;12.840;2023-07-20T10:17:56;31.90;53.10
19050;DHT22;9657;45.940;12.840;2023-07-20T10:20:25;31.90;53.10
19050;DHT22;9657;45.940;12.840;2023-07-20T10:22:54;31.90;53.10
19050;DHT22;9657;45.940;12.840;2023-07-20T10:25:23;31.90;53.00
19050;DHT22;9657;45.940;12.840;2023-07-20T10:27:50;31.90;53.00
19050;DHT22;9657;45.940;12.840;2023-07-20T10:30:18;31.90;53.00
19050;DHT22;9657;45.940;12.840;2023-07-20T10:32:48;31.90;53.00
19050;DHT22;9657;45.940;12.840;2023-07-20T10:35:16;31.90;53.00
19050;DHT22;9657;45.940;12.840;2023-07-20T10:37:52;31.90;53.00
19050;DHT22;9657;45.940;12.840;2023-07-20T10:40:29;31.90;53.00
19050;DHT22;9657;45.940;12.840;2023-07-20T10:43:02;31.90;53.00
19050;DHT22;9657;45.940;12.840;2023-07-20T10:45:37;31.90;53.00
19050;DHT22;9657;45.940;12.840;2023-07-20T10:48:13;31.90;53.00
19050;DHT22;9657;45.940;12.840;2023-07-20T10:50:40;31.90;52.90
19050;DHT22;9657;45.940;12.840;2023-07-20T10:53:12;31.90;52.90
19050;DHT22;9657;45.940;12.840;2023-07-20T10:55:39;31.90;52.90
19050;DHT22;9657;45.940;12.840;2023-07-20T10:58:08;32.00;53.00
19050;DHT22;9657;45.940;12.840;2023-07-20T11:00:35;31.90;52.90
19050;DHT22;9657;45.940;12.840;2023-07-20T11:03:03;32.00;53.00
19050;DHT22;9657;45.940;12.840;2023-07-20T11:05:37;32.00;53.00
19050;DHT22;9657;45.940;12.840;2023-07-20T11:08:05;32.00;52.90
19050;DHT22;9657;45.940;12.840;2023-07-20T11:10:33;32.00;53.00
19050;DHT22;9657;45.940;12.840;2023-07-20T11:13:20;32.00;52.90
19050;DHT22;9657;45.940;12.840;2023-07-20T11:16:01;32.00;52.90
19050;DHT22;9657;45.940;12.840;2023-07-20T11:18:30;32.00;52.90
19050;DHT22;9657;45.940;12.840;2023-07-20T11:21:01;32.00;52.90
19050;DHT22;9657;45.940;12.840;2023-07-20T11:23:29;32.00;52.90
19050;DHT22;9657;45.940;12.840;2023-07-20T11:25:58;32.00;52.90
19050;DHT22;9657;45.940;12.840;2023-07-20T11:28:26;32.00;52.90
19050;DHT22;9657;45.940;12.840;2023-07-20T11:30:56;32.00;52.90
19050;DHT22;9657;45.940;12.840;2023-07-20T11:33:23;32.00;52.90
19050;DHT22;9657;45.940;12.840;2023-07-20T11:35:50;32.00;52.90
19050;DHT22;9657;45.940;12.840;2023-07-20T11:38:20;32.00;52.90
19050;DHT22;9657;45.940;12.840;2023-07-20T11:40:47;32.00;52.80
19050;DHT22;9657;45.940;12.840;2023-07-20T11:43:14;32.00;52.80
19050;DHT22;9657;45.940;12.840;2023-07-20T11:45:41;32.10;53.00
19050;DHT22;9657;45.940;12.840;2023-07-20T11:48:15;32.10;52.90
19050;DHT22;9657;45.940;12.840;2023-07-20T11:50:42;32.10;53.00
19050;DHT22;9657;45.940;12.840;2023-07-20T11:53:09;32.00;52.80
19050;DHT22;9657;45.940;12.840;2023-07-20T11:55:39;32.10;52.90
19050;DHT22;9657;45.940;12.840;2023-07-20T11:58:07;32.10;52.90
19050;DHT22;9657;45.940;12.840;2023-07-20T12:00:38;32.10;52.90
19050;DHT22;9657;45.940;12.840;2023-07-20T12:03:06;32.10;52.90
19050;DHT22;9657;45.940;12.840;2023-07-20T12:05:33;32.10;52.90
19050;DHT22;9657;45.940;12.840;2023-07-20T12:08:00;32.10;53.00
19050;DHT22;9657;45.940;12.840;2023-07-20T12:10:28;32.10;52.90
19050;DHT22;9657;45.940;12.840;2023-07-20T12:13:01;32.10;52.90
19050;DHT22;9657;45.940;12.840;2023-07-20T12:15:29;32.10;52.90
19050;DHT22;9657;45.940;12.840;2023-07-20T12:17:58;32.20;53.00
19050;DHT22;9657;45.940;12.840;2023-07-20T12:20:27;32.10;52.90
19050;DHT22;9657;45.940;12.840;2023-07-20T12:22:56;32.10;52.90
19050;DHT22;9657;45.940;12.840;2023-07-20T12:25:24;32.10;52.90
19050;DHT22;9657;45.940;12.840;2023-07-20T12:28:01;32.10;52.90
19050;DHT22;9657;45.940;12.840;2023-07-20T12:30:29;32.20;53.00
19050;DHT22;9657;45.940;12.840;2023-07-20T12:32:56;32.20;53.00
19050;DHT22;9657;45.940;12.840;2023-07-20T12:35:23;32.20;53.00
19050;DHT22;9657;45.940;12.840;2023-07-20T12:37:50;32.20;53.00
19050;DHT22;9657;45.940;12.840;2023-07-20T12:40:19;32.20;53.10
19050;DHT22;9657;45.940;12.840;2023-07-20T12:42:46;32.20;53.00
19050;DHT22;9657;45.940;12.840;2023-07-20T12:45:15;32.20;53.00
19050;DHT22;9657;45.940;12.840;2023-07-20T12:47:42;32.20;53.00
19050;DHT22;9657;45.940;12.840;2023-07-20T12:50:09;32.20;53.00
19050;DHT22;9657;45.940;12.840;2023-07-20T12:52:38;32.20;53.00
19050;DHT22;9657;45.940;12.840;2023-07-20T12:55:06;32.20;53.00
19050;DHT22;9657;45.940;12.840;2023-07-20T12:57:34;32.20;53.70
19050;DHT22;9657;45.940;12.840;2023-07-20T13:00:02;32.20;53.00
19050;DHT22;9657;45.940;12.840;2023-07-20T13:02:32;32.20;53.00
19050;DHT22;9657;45.940;12.840;2023-07-20T13:04:59;32.20;53.00
19050;DHT22;9657;45.940;12.840;2023-07-20T13:07:30;32.20;53.00
19050;DHT22;9657;45.940;12.840;2023-07-20T13:09:58;32.20;53.00
19050;DHT22;9657;45.940;12.840;2023-07-20T13:12:26;32.20;53.00
19050;DHT22;9657;45.940;12.840;2023-07-20T13:14:54;32.20;53.00
19050;DHT22;9657;45.940;12.840;2023-07-20T13:17:22;32.20;53.00
19050;DHT22;9657;45.940;12.840;2023-07-20T13:19:51;32.20;53.00
19050;DHT22;9657;45.940;12.840;2023-07-20T13:22:18;32.20;53.00
19050;DHT22;9657;45.940;12.840;2023-07-20T13:24:45;32.20;52.90
19050;DHT22;9657;45.940;12.840;2023-07-20T13:27:14;32.20;52.90
19050;DHT22;9657;45.940;12.840;2023-07-20T13:29:41;32.20;52.90
19050;DHT22;9657;45.940;12.840;2023-07-20T13:32:09;32.20;53.00
19050;DHT22;9657;45.940;12.840;2023-07-20T13:34:37;32.20;52.90
19050;DHT22;9657;45.940;12.840;2023-07-20T13:37:06;32.20;53.00
19050;DHT22;9657;45.940;12.840;2023-07-20T13:39:33;32.30;53.70
19050;DHT22;9657;45.940;12.840;2023-07-20T13:42:00;32.20;53.00
19050;DHT22;9657;45.940;12.840;2023-07-20T13:44:29;32.30;53.00
19050;DHT22;9657;45.940;12.840;2023-07-20T13:46:56;32.30;53.00
19050;DHT22;9657;45.940;12.840;2023-07-20T13:49:24;32.20;53.00
19050;DHT22;9657;45.940;12.840;2023-07-20T13:51:51;32.20;53.10
19050;DHT22;9657;45.940;12.840;2023-07-20T13:54:19;32.30;53.10
19050;DHT22;9657;45.940;12.840;2023-07-20T13:56:46;32.20;53.00
19050;DHT22;9657;45.940;12.840;2023-07-20T13:59:13;32.30;53.00
19050;DHT22;9657;45.940;12.840;2023-07-20T14:01:40;32.30;53.00
19050;DHT22;9657;45.940;12.840;2023-07-20T14:04:08;32.30;53.70
19050;DHT22;9657;45.940;12.840;2023-07-20T14:06:35;32.30;53.00
19050;DHT22;9657;45.940;12.840;2023-07-20T14:09:03;32.30;53.00
19050;DHT22;9657;45.940;12.840;2023-07-20T14:11:31;32.30;53.00
19050;DHT22;9657;45.940;12.840;2023-07-20T14:13:58;32.30;53.00
19050;DHT22;9657;45.940;12.840;2023-07-20T14:16:25;32.30;53.00
19050;DHT22;9657;45.940;12.840;2023-07-20T14:18:52;32.30;53.00
19050;DHT22;9657;45.940;12.840;2023-07-20T14:21:20;32.30;53.00
19050;DHT22;9657;45.940;12.840;2023-07-20T14:23:49;32.30;52.90
19050;DHT22;9657;45.940;12.840;2023-07-20T14:26:16;32.30;52.90
19050;DHT22;9657;45.940;12.840;2023-07-20T14:28:44;32.30;52.90
19050;DHT22;9657;45.940;12.840;2023-07-20T14:31:11;32.30;52.90
19050;DHT22;9657;45.940;12.840;2023-07-20T14:33:39;32.30;52.80
19050;DHT22;9657;45.940;12.840;2023-07-20T14:36:06;32.30;52.80
19050;DHT22;9657;45.940;12.840;2023-07-20T14:38:34;32.30;52.80
19050;DHT22;9657;45.940;12.840;2023-07-20T14:41:01;32.30;52.80
19050;DHT22;9657;45.940;12.840;2023-07-20T14:43:29;32.30;52.60
19050;DHT22;9657;45.940;12.840;2023-07-20T14:45:57;32.30;52.70
19050;DHT22;9657;45.940;12.840;2023-07-20T14:48:24;32.30;52.50
19050;DHT22;9657;45.940;12.840;2023-07-20T14:50:51;32.30;52.40
19050;DHT22;9657;45.940;12.840;2023-07-20T14:53:18;32.30;52.40
19050;DHT22;9657;45.940;12.840;2023-07-20T14:55:45;32.30;52.20
19050;DHT22;9657;45.940;12.840;2023-07-20T14:58:12;32.30;52.30
19050;DHT22;9657;45.940;12.840;2023-07-20T15:00:39;32.30;52.20
19050;DHT22;9657;45.940;12.840;2023-07-20T15:03:08;32.30;52.20
19050;DHT22;9657;45.940;12.840;2023-07-20T15:05:35;32.30;52.20
19050;DHT22;9657;45.940;12.840;2023-07-20T15:08:04;32.30;52.00
19050;DHT22;9657;45.940;12.840;2023-07-20T15:10:32;32.30;52.10
19050;DHT22;9657;45.940;12.840;2023-07-20T15:12:59;32.30;52.00
19050;DHT22;9657;45.940;12.840;2023-07-20T15:15:26;32.20;52.00
19050;DHT22;9657;45.940;12.840;2023-07-20T15:17:53;32.30;52.00
19050;DHT22;9657;45.940;12.840;2023-07-20T15:20:22;32.20;52.10
19050;DHT22;9657;45.940;12.840;2023-07-20T15:22:49;32.30;52.10
19050;DHT22;9657;45.940;12.840;2023-07-20T15:25:16;32.30;51.90
19050;DHT22;9657;45.940;12.840;2023-07-20T15:27:43;32.20;51.80
19050;DHT22;9657;45.940;12.840;2023-07-20T15:30:11;32.30;51.80
19050;DHT22;9657;45.940;12.840;2023-07-20T15:32:40;32.30;51.80
19050;DHT22;9657;45.940;12.840;2023-07-20T15:35:09;32.30;51.70
19050;DHT22;9657;45.940;12.840;2023-07-20T15:37:38;32.30;51.70
19050;DHT22;9657;45.940;12.840;2023-07-20T15:40:06;32.30;51.70
19050;DHT22;9657;45.940;12.840;2023-07-20T15:42:34;32.20;51.70